createdAt,value
2018-10-01T00:01:12.748Z,99916.92
2018-10-01T00:03:45.893Z,99920.56
2018-10-01T00:06:18.432Z,99914.09
2018-10-01T00:08:51.240Z,99912.84
2018-10-01T00:11:23.804Z,99905.94
2018-10-01T00:13:57.288Z,99908.38
2018-10-01T00:16:30.168Z,99911.30
2018-10-01T00:19:22.805Z,99917.67
2018-10-01T00:22:01.287Z,99922.00
2018-10-01T00:24:35.184Z,99921.64
2018-10-01T00:27:07.999Z,99920.20
2018-10-01T00:29:41.252Z,99923.81
2018-10-01T00:32:13.972Z,99921.91
2018-10-01T00:34:46.492Z,99916.74
2018-10-01T00:37:19.664Z,99914.97
2018-10-01T00:39:52.227Z,99914.08
2018-10-01T00:42:24.812Z,99915.59
2018-10-01T00:44:58.648Z,99911.95
2018-10-01T00:47:31.253Z,99899.05
2018-10-01T00:50:04.169Z,99890.76
2018-10-01T00:52:36.876Z,99890.47
2018-10-01T00:55:09.348Z,99890.62
2018-10-01T00:57:42.321Z,99884.98
2018-10-01T01:00:16.630Z,99881.13
2018-10-01T01:02:52.045Z,99880.19
2018-10-01T01:05:25.328Z,99884.02
2018-10-01T01:08:00.537Z,99884.06
2018-10-01T01:10:34.072Z,99890.30
2018-10-01T01:13:07.377Z,99893.58
2018-10-01T01:15:43.685Z,99891.70
2018-10-01T01:18:16.272Z,99892.77
2018-10-01T01:20:48.910Z,99886.29
2018-10-01T01:23:21.653Z,99882.81
2018-10-01T01:25:54.476Z,99887.36
2018-10-01T01:28:27.824Z,99890.36
2018-10-01T01:31:00.828Z,99896.73
2018-10-01T01:33:33.470Z,99895.61
2018-10-01T01:36:06.028Z,99894.66
2018-10-01T01:38:38.926Z,99899.23
2018-10-01T01:41:12.404Z,99902.75
2018-10-01T01:43:45.357Z,99911.48
2018-10-01T01:46:19.146Z,99914.21
2018-10-01T01:48:52.574Z,99915.33
2018-10-01T01:51:28.460Z,99909.19
2018-10-01T01:54:01.424Z,99912.22
2018-10-01T01:56:33.997Z,99914.06
2018-10-01T01:59:07.528Z,99906.45
2018-10-01T02:01:43.334Z,99910.16
2018-10-01T02:04:15.809Z,99912.59
2018-10-01T02:06:48.408Z,99911.44
2018-10-01T02:09:22.206Z,99910.91
2018-10-01T02:11:54.791Z,99910.06
2018-10-01T02:14:26.531Z,99909.52
2018-10-01T02:16:59.553Z,99909.80
2018-10-01T02:19:32.262Z,99911.77
2018-10-01T02:22:06.929Z,99915.02
2018-10-01T02:24:39.676Z,99914.44
2018-10-01T02:27:12.322Z,99917.98
2018-10-01T02:29:45.083Z,99917.36
2018-10-01T02:32:18.121Z,99916.19
2018-10-01T02:34:50.620Z,99921.84
2018-10-01T02:37:23.180Z,99920.17
2018-10-01T02:39:56.021Z,99920.52
2018-10-01T02:42:29.145Z,99914.93
2018-10-01T02:45:04.002Z,99918.59
2018-10-01T02:47:38.109Z,99924.73
2018-10-01T02:50:10.669Z,99923.38
2018-10-01T02:53:02.952Z,99926.16
2018-10-01T02:55:47.305Z,99926.23
2018-10-01T02:58:20.137Z,99925.97
2018-10-01T03:00:53.056Z,99930.16
2018-10-01T03:03:25.689Z,99927.72
2018-10-01T03:05:58.204Z,99929.77
2018-10-01T03:08:31.937Z,99932.73
2018-10-01T03:11:04.950Z,99930.45
2018-10-01T03:13:39.456Z,99926.63
2018-10-01T03:16:12.257Z,99919.81
2018-10-01T03:18:44.776Z,99928.14
2018-10-01T03:21:18.315Z,99926.31
2018-10-01T03:23:52.219Z,99926.29
2018-10-01T03:26:25.817Z,99925.94
2018-10-01T03:28:58.452Z,99919.74
2018-10-01T03:31:31.385Z,99919.44
2018-10-01T03:34:03.832Z,99919.98
2018-10-01T03:36:36.541Z,99921.08
2018-10-01T03:39:10.577Z,99929.10
2018-10-01T03:41:43.121Z,99925.47
2018-10-01T03:44:15.677Z,99929.24
2018-10-01T03:46:48.296Z,99926.22
2018-10-01T03:49:22.440Z,99927.35
2018-10-01T03:51:55.288Z,99926.33
2018-10-01T03:54:28.060Z,99924.27
2018-10-01T03:57:01.069Z,99921.96
2018-10-01T03:59:33.616Z,99926.88
2018-10-01T04:02:07.250Z,99927.00
2018-10-01T04:04:40.657Z,99933.31
2018-10-01T04:07:13.193Z,99934.55
2018-10-01T04:09:45.768Z,99931.52
2018-10-01T04:12:18.529Z,99934.66
2018-10-01T04:14:51.101Z,99935.55
2018-10-01T04:17:23.563Z,99933.47
2018-10-01T04:19:56.723Z,99932.92
2018-10-01T04:22:38.129Z,99938.28
2018-10-01T04:25:11.874Z,99932.72
2018-10-01T04:27:44.624Z,99932.11
2018-10-01T04:30:16.764Z,99932.12
2018-10-01T04:32:49.336Z,99928.94
2018-10-01T04:35:22.253Z,99936.41
2018-10-01T04:37:55.367Z,99935.83
2018-10-01T04:40:27.913Z,99939.70
2018-10-01T04:43:01.141Z,99940.58
2018-10-01T04:45:34.916Z,99947.77
2018-10-01T04:48:07.457Z,99949.87
2018-10-01T04:50:40.281Z,99948.94
2018-10-01T04:53:12.836Z,99956.59
2018-10-01T04:55:45.436Z,99957.54
2018-10-01T04:58:18.618Z,99954.61
2018-10-01T05:00:51.176Z,99964.62
2018-10-01T05:03:23.517Z,99969.23
2018-10-01T05:05:56.396Z,99971.20
2018-10-01T05:08:28.881Z,99971.30
2018-10-01T05:11:01.584Z,99972.38
2018-10-01T05:13:34.484Z,99975.00
2018-10-01T05:16:07.288Z,99978.22
2018-10-01T05:18:39.819Z,99983.97
2018-10-01T05:21:12.499Z,99978.46
2018-10-01T05:23:44.948Z,99984.77
2018-10-01T05:26:17.580Z,99989.52
2018-10-01T05:28:50.145Z,99988.70
2018-10-01T05:31:22.753Z,99990.09
2018-10-01T05:33:55.908Z,99989.37
2018-10-01T05:36:29.524Z,99997.83
2018-10-01T05:39:04.581Z,99994.24
2018-10-01T05:41:39.612Z,100008.34
2018-10-01T05:44:12.752Z,100014.58
2018-10-01T05:46:46.407Z,100018.84
2018-10-01T05:49:21.248Z,100018.27
2018-10-01T05:51:53.761Z,100016.06
2018-10-01T05:54:26.591Z,100017.85
2018-10-01T05:56:59.224Z,100007.78
2018-10-01T05:59:32.134Z,100010.81
2018-10-01T06:02:06.626Z,100011.62
2018-10-01T06:04:39.149Z,100008.06
2018-10-01T06:07:12.765Z,100016.10
2018-10-01T06:09:46.852Z,100024.33
2018-10-01T06:12:19.775Z,100023.56
2018-10-01T06:14:52.312Z,100027.83
2018-10-01T06:17:26.093Z,100031.22
2018-10-01T06:19:59.350Z,100034.86
2018-10-01T06:22:34.465Z,100038.34
2018-10-01T06:25:07.774Z,100040.78
2018-10-01T06:27:40.332Z,100047.53
2018-10-01T06:30:15.668Z,100056.11
2018-10-01T06:32:49.362Z,100058.89
2018-10-01T06:35:22.147Z,100061.40
2018-10-01T06:37:57.405Z,100068.33
2018-10-01T06:40:31.672Z,100070.47
2018-10-01T06:43:04.344Z,100065.28
2018-10-01T06:45:39.250Z,100069.23
2018-10-01T06:48:12.343Z,100066.19
2018-10-01T06:50:46.130Z,100070.16
2018-10-01T06:53:19.410Z,100071.59
2018-10-01T06:55:53.231Z,100080.53
2018-10-01T06:58:25.710Z,100087.27
2018-10-01T07:01:03.933Z,100088.58
2018-10-01T07:03:37.519Z,100095.45
2018-10-01T07:06:10.116Z,100094.84
2018-10-01T07:08:44.762Z,100100.36
2018-10-01T07:11:17.586Z,100099.45
2018-10-01T07:13:51.255Z,100104.87
2018-10-01T07:16:25.254Z,100104.13
2018-10-01T07:18:59.253Z,100111.58
2018-10-01T07:21:33.972Z,100118.41
2018-10-01T07:24:09.731Z,100116.60
2018-10-01T07:26:53.891Z,100116.20
2018-10-01T07:29:35.267Z,100121.96
2018-10-01T07:32:07.799Z,100123.01
2018-10-01T07:34:41.776Z,100129.11
2018-10-01T07:37:17.070Z,100122.20
2018-10-01T07:39:51.732Z,100117.81
2018-10-01T07:42:24.895Z,100128.47
2018-10-01T07:45:04.848Z,100123.96
2018-10-01T07:47:37.344Z,100125.07
2018-10-01T07:50:11.935Z,100130.25
2018-10-01T07:52:46.939Z,100132.63
2018-10-01T07:55:20.241Z,100129.70
2018-10-01T07:57:54.053Z,100132.88
2018-10-01T08:00:29.001Z,100125.89
2018-10-01T08:03:03.351Z,100131.33
2018-10-01T08:05:38.145Z,100139.09
2018-10-01T08:08:11.787Z,100139.45
2018-10-01T08:10:48.169Z,100152.36
2018-10-01T08:13:21.001Z,100150.95
2018-10-01T08:15:54.876Z,100155.73
2018-10-01T08:18:29.556Z,100161.32
2018-10-01T08:21:02.302Z,100157.45
2018-10-01T08:23:35.994Z,100159.69
2018-10-01T08:26:10.802Z,100169.28
2018-10-01T08:28:44.792Z,100167.98
2018-10-01T08:31:24.681Z,100166.77
2018-10-01T08:33:58.904Z,100173.59
2018-10-01T08:36:33.053Z,100167.23
2018-10-01T08:39:13.673Z,100193.33
2018-10-01T08:41:46.428Z,100182.15
2018-10-01T08:44:20.261Z,100187.00
2018-10-01T08:46:54.562Z,100193.11
2018-10-01T08:49:38.372Z,100196.76
2018-10-01T08:52:16.566Z,100195.48
2018-10-01T08:54:50.400Z,100196.40
2018-10-01T08:57:24.301Z,100200.94
2018-10-01T08:59:57.769Z,100197.41
2018-10-01T09:02:30.372Z,100198.28
2018-10-01T09:05:05.293Z,100203.71
2018-10-01T09:07:39.334Z,100196.91
2018-10-01T09:10:12.976Z,100210.58
2018-10-01T09:12:45.792Z,100212.59
2018-10-01T09:15:19.465Z,100207.83
2018-10-01T09:17:52.785Z,100213.81
2018-10-01T09:20:26.002Z,100217.72
2018-10-01T09:22:58.586Z,100213.63
2018-10-01T09:25:33.931Z,100216.03
2018-10-01T09:28:07.288Z,100222.64
2018-10-01T09:30:39.838Z,100226.66
2018-10-01T09:33:12.576Z,100234.87
2018-10-01T09:35:46.097Z,100223.11
2018-10-01T09:38:18.770Z,100224.41
2018-10-01T09:40:51.333Z,100233.01
2018-10-01T09:43:24.577Z,100219.19
2018-10-01T09:45:59.169Z,100231.10
2018-10-01T09:48:31.683Z,100228.67
2018-10-01T09:51:09.274Z,100221.11
2018-10-01T09:53:42.972Z,100224.21
2018-10-01T09:56:15.670Z,100227.41
2018-10-01T09:58:50.471Z,100218.72
2018-10-01T10:01:24.489Z,100213.53
2018-10-01T10:03:59.007Z,100211.00
2018-10-01T10:06:35.831Z,100201.17
2018-10-01T10:09:12.454Z,100199.62
2018-10-01T10:11:45.617Z,100207.92
2018-10-01T10:14:20.327Z,100210.94
2018-10-01T10:16:53.977Z,100204.19
2018-10-01T10:19:27.924Z,100202.91
2018-10-01T10:22:02.541Z,100207.13
2018-10-01T10:24:36.024Z,100212.95
2018-10-01T10:27:10.641Z,100236.56
2018-10-01T10:29:45.093Z,100245.31
2018-10-01T10:32:17.785Z,100268.91
2018-10-01T10:34:51.688Z,100271.64
2018-10-01T10:37:26.502Z,100285.88
2018-10-01T10:39:59.068Z,100284.05
2018-10-01T10:42:33.368Z,100269.16
2018-10-01T10:45:07.488Z,100269.57
2018-10-01T10:47:41.033Z,100268.30
2018-10-01T10:50:14.012Z,100265.91
2018-10-01T10:52:48.987Z,100276.44
2018-10-01T10:55:21.553Z,100271.68
2018-10-01T10:57:54.320Z,100275.38
2018-10-01T11:00:28.669Z,100273.03
2018-10-01T11:03:02.057Z,100271.05
2018-10-01T11:05:35.420Z,100264.77
2018-10-01T11:08:08.024Z,100259.73
2018-10-01T11:10:41.861Z,100259.68
2018-10-01T11:13:15.849Z,100252.64
2018-10-01T11:15:51.600Z,100252.61
2018-10-01T11:18:24.879Z,100251.61
2018-10-01T11:20:57.670Z,100248.17
2018-10-01T11:23:31.725Z,100250.70
2018-10-01T11:26:04.212Z,100265.81
2018-10-01T11:28:36.772Z,100232.20
2018-10-01T11:31:09.785Z,100248.50
2018-10-01T11:33:44.401Z,100241.67
2018-10-01T11:36:19.077Z,100242.62
2018-10-01T11:38:51.444Z,100246.16
2018-10-01T11:41:28.255Z,100258.69
2018-10-01T11:44:05.548Z,100318.23
2018-10-01T11:46:38.368Z,100330.83
2018-10-01T11:49:13.381Z,100344.23
2018-10-01T11:51:48.309Z,100349.33
2018-10-01T11:54:24.790Z,100344.11
2018-10-01T11:57:05.536Z,100340.97
2018-10-01T11:59:40.793Z,100338.98
2018-10-01T12:02:32.520Z,100338.92
2018-10-01T12:05:10.419Z,100343.47
2018-10-01T12:07:56.797Z,100334.00
2018-10-01T12:10:43.337Z,100334.78
2018-10-01T12:13:20.485Z,100332.61
2018-10-01T12:15:57.923Z,100328.55
2018-10-01T12:18:36.696Z,100331.69
2018-10-01T12:21:17.889Z,100334.52
2018-10-01T12:23:54.712Z,100338.13
2018-10-01T12:26:32.511Z,100336.84
2018-10-01T12:29:07.037Z,100329.98
2018-10-01T12:31:40.462Z,100335.63
2018-10-01T12:34:13.133Z,100333.41
2018-10-01T12:36:48.172Z,100327.25
2018-10-01T12:39:22.418Z,100333.67
2018-10-01T12:42:08.780Z,100323.08
2018-10-01T12:44:47.884Z,100323.97
2018-10-01T12:47:22.949Z,100328.70
2018-10-01T12:49:59.190Z,100328.09
2018-10-01T12:52:39.525Z,100324.87
2018-10-01T12:55:16.653Z,100318.41
2018-10-01T12:57:54.884Z,100319.83
2018-10-01T13:00:29.315Z,100319.72
2018-10-01T13:03:05.884Z,100317.47
2018-10-01T13:05:39.729Z,100320.78
2018-10-01T13:08:14.293Z,100314.08
2018-10-01T13:10:52.863Z,100322.52
2018-10-01T13:13:29.001Z,100331.29
2018-10-01T13:16:05.525Z,100334.41
2018-10-01T13:18:40.015Z,100332.91
2018-10-01T13:21:18.465Z,100320.32
2018-10-01T13:23:52.802Z,100322.09
2018-10-01T13:26:33.984Z,100334.86
2018-10-01T13:29:10.660Z,100332.31
2018-10-01T13:31:49.294Z,100337.21
2018-10-01T13:34:29.621Z,100326.98
2018-10-01T13:37:04.801Z,100332.91
2018-10-01T13:39:44.263Z,100324.06
2018-10-01T13:42:23.925Z,100323.20
2018-10-01T13:44:59.520Z,100319.11
2018-10-01T13:47:34.455Z,100322.55
2018-10-01T13:50:12.979Z,100330.85
2018-10-01T13:52:49.524Z,100330.18
2018-10-01T13:55:28.016Z,100325.77
2018-10-01T13:58:02.278Z,100329.23
2018-10-01T14:00:43.760Z,100330.27
2018-10-01T14:03:18.064Z,100328.09
2018-10-01T14:05:52.169Z,100324.45
2018-10-01T14:08:31.257Z,100324.41
2018-10-01T14:11:04.856Z,100324.13
2018-10-01T14:13:42.674Z,100329.80
2018-10-01T14:16:17.316Z,100324.22
2018-10-01T14:18:52.241Z,100331.59
2018-10-01T14:21:38.384Z,100328.80
2018-10-01T14:24:12.459Z,100336.03
2018-10-01T14:26:51.713Z,100340.38
2018-10-01T14:29:33.010Z,100357.66
2018-10-01T14:32:06.793Z,100382.80
2018-10-01T14:34:45.053Z,100381.23
2018-10-01T14:37:24.620Z,100361.90
2018-10-01T14:40:05.684Z,100364.20
2018-10-01T14:42:40.703Z,100365.30
2018-10-01T14:45:18.007Z,100379.37
2018-10-01T14:47:55.932Z,100374.95
2018-10-01T14:50:32.247Z,100373.34
2018-10-01T14:53:08.642Z,100368.56
2018-10-01T14:55:45.310Z,100369.19
2018-10-01T14:58:19.300Z,100368.94
2018-10-01T15:00:59.671Z,100356.65
2018-10-01T15:03:32.393Z,100374.69
2018-10-01T15:06:08.419Z,100369.37
2018-10-01T15:08:45.720Z,100371.32
2018-10-01T15:11:29.345Z,100375.11
2018-10-01T15:14:02.713Z,100377.62
2018-10-01T15:16:36.193Z,100384.98
2018-10-01T15:19:15.867Z,100380.94
2018-10-01T15:21:53.981Z,100384.31
2018-10-01T15:24:26.667Z,100390.05
2018-10-01T15:27:03.546Z,100383.59
2018-10-01T15:29:40.557Z,100384.78
2018-10-01T15:32:15.051Z,100389.36
2018-10-01T15:34:50.694Z,100387.48
2018-10-01T15:37:33.140Z,100394.04
2018-10-01T15:40:14.088Z,100391.50
2018-10-01T15:42:51.506Z,100401.30
2018-10-01T15:45:25.598Z,100402.92
2018-10-01T15:48:00.917Z,100397.65
2018-10-01T15:50:40.117Z,100403.20
2018-10-01T15:53:18.753Z,100402.87
2018-10-01T15:55:55.809Z,100407.78
2018-10-01T15:58:34.157Z,100406.37
2018-10-01T16:01:10.300Z,100415.46
2018-10-01T16:03:48.407Z,100418.59
2018-10-01T16:06:23.409Z,100413.70
2018-10-01T16:09:02.255Z,100440.95
2018-10-01T16:11:36.490Z,100438.84
2018-10-01T16:14:09.381Z,100457.66
2018-10-01T16:16:46.343Z,100455.48
2018-10-01T16:19:20.675Z,100462.45
2018-10-01T16:21:56.969Z,100473.20
2018-10-01T16:24:32.602Z,100480.69
2018-10-01T16:27:09.535Z,100462.48
2018-10-01T16:29:44.624Z,100465.02
2018-10-01T16:32:20.712Z,100478.59
2018-10-01T16:35:07.021Z,100483.45
2018-10-01T16:37:44.189Z,100474.95
2018-10-01T16:40:35.928Z,100482.95
2018-10-01T16:43:11.514Z,100487.27
2018-10-01T16:45:59.893Z,100486.81
2018-10-01T16:48:37.334Z,100490.73
2018-10-01T16:51:17.152Z,100487.20
2018-10-01T16:53:56.755Z,100492.76
2018-10-01T16:56:34.730Z,100499.25
2018-10-01T16:59:15.460Z,100503.29
2018-10-01T17:01:57.161Z,100499.97
2018-10-01T17:04:32.394Z,100501.23
2018-10-01T17:07:06.621Z,100508.05
2018-10-01T17:09:46.532Z,100512.80
2018-10-01T17:12:22.857Z,100517.19
2018-10-01T17:14:58.227Z,100518.69
2018-10-01T17:17:35.763Z,100532.11
2018-10-01T17:20:10.734Z,100540.20
2018-10-01T17:22:43.507Z,100550.37
2018-10-01T17:25:25.800Z,100553.17
2018-10-01T17:28:04.481Z,100558.35
2018-10-01T17:30:44.179Z,100564.58
2018-10-01T17:33:26.370Z,100570.74
2018-10-01T17:36:04.907Z,100569.72
2018-10-01T17:38:45.168Z,100573.06
2018-10-01T17:41:24.460Z,100576.17
2018-10-01T17:44:01.925Z,100582.79
2018-10-01T17:46:44.549Z,100586.06
2018-10-01T17:49:20.805Z,100589.89
2018-10-01T17:52:00.889Z,100592.81
2018-10-01T17:54:44.273Z,100596.87
2018-10-01T17:57:23.717Z,100596.05
2018-10-01T18:00:00.763Z,100596.92
2018-10-01T18:02:57.383Z,100603.45
2018-10-01T18:05:29.896Z,100603.97
2018-10-01T18:08:07.659Z,100603.03
2018-10-01T18:10:47.069Z,100601.30
2018-10-01T18:13:29.633Z,100602.67
2018-10-01T18:16:08.588Z,100612.63
2018-10-01T18:18:43.223Z,100612.64
2018-10-01T18:21:18.069Z,100613.05
2018-10-01T18:23:52.970Z,100609.61
2018-10-01T18:26:33.090Z,100619.59
2018-10-01T18:29:10.607Z,100612.44
2018-10-01T18:31:46.690Z,100624.64
2018-10-01T18:34:23.918Z,100624.03
2018-10-01T18:36:58.451Z,100624.33
2018-10-01T18:39:35.624Z,100619.97
2018-10-01T18:42:08.733Z,100629.61
2018-10-01T18:44:43.884Z,100630.65
2018-10-01T18:47:18.025Z,100633.39
2018-10-01T18:49:57.057Z,100639.63
2018-10-01T18:52:31.792Z,100639.30
2018-10-01T18:55:12.531Z,100643.85
2018-10-01T18:57:52.397Z,100637.64
2018-10-01T19:00:32.494Z,100634.23
2018-10-01T19:03:10.651Z,100635.95
2018-10-01T19:05:54.540Z,100634.27
2018-10-01T19:08:37.814Z,100632.91
2018-10-01T19:11:17.113Z,100635.48
2018-10-01T19:13:53.409Z,100633.29
2018-10-01T19:16:33.690Z,100638.41
2018-10-01T19:19:30.656Z,100632.83
2018-10-01T19:22:08.487Z,100636.63
2018-10-01T19:24:47.847Z,100636.39
2018-10-01T19:27:38.259Z,100642.41
2018-10-01T19:30:15.595Z,100647.00
2018-10-01T19:32:51.403Z,100644.78
2018-10-01T19:35:26.595Z,100645.78
2018-10-01T19:38:03.012Z,100648.81
2018-10-01T19:40:38.075Z,100644.89
2018-10-01T19:43:12.338Z,100646.44
2018-10-01T19:45:49.603Z,100647.58
2018-10-01T19:48:30.471Z,100650.58
2018-10-01T19:51:05.925Z,100666.77
2018-10-01T19:53:44.764Z,100669.01
2018-10-01T19:56:21.349Z,100671.48
2018-10-01T19:58:59.507Z,100664.66
2018-10-01T20:01:37.903Z,100650.41
2018-10-01T20:04:12.637Z,100660.22
2018-10-01T20:06:51.485Z,100655.86
2018-10-01T20:09:30.110Z,100656.41
2018-10-01T20:12:04.226Z,100660.39
2018-10-01T20:14:41.448Z,100659.34
2018-10-01T20:17:16.895Z,100663.84
2018-10-01T20:19:54.164Z,100661.49
2018-10-01T20:22:30.118Z,100661.54
2018-10-01T20:25:04.033Z,100665.27
2018-10-01T20:27:37.970Z,100659.52
2018-10-01T20:30:14.568Z,100661.05
2018-10-01T20:32:52.106Z,100663.33
2018-10-01T20:35:28.030Z,100664.92
2018-10-01T20:38:01.587Z,100661.25
2018-10-01T20:40:40.330Z,100667.09
2018-10-01T20:43:14.948Z,100664.52
2018-10-01T20:45:51.236Z,100668.14
2018-10-01T20:48:26.036Z,100672.31
2018-10-01T20:51:00.652Z,100666.37
2018-10-01T20:53:33.963Z,100668.05
2018-10-01T20:56:08.390Z,100667.84
2018-10-01T20:58:41.877Z,100675.22
2018-10-01T21:01:17.857Z,100678.64
2018-10-01T21:03:52.895Z,100683.78
2018-10-01T21:06:31.329Z,100682.54
2018-10-01T21:09:07.732Z,100681.35
2018-10-01T21:11:42.519Z,100683.67
2018-10-01T21:14:22.788Z,100681.02
2018-10-01T21:16:58.045Z,100679.53
2018-10-01T21:19:36.009Z,100673.94
2018-10-01T21:22:11.962Z,100675.83
2018-10-01T21:24:50.956Z,100671.80
2018-10-01T21:27:27.772Z,100670.66
2018-10-01T21:30:08.780Z,100670.95
2018-10-01T21:32:41.777Z,100666.80
2018-10-01T21:35:16.088Z,100669.50
2018-10-01T21:37:52.425Z,100667.94
2018-10-01T21:40:28.743Z,100667.41
2018-10-01T21:43:03.824Z,100667.98
2018-10-01T21:45:40.753Z,100669.20
2018-10-01T21:48:15.476Z,100667.47
2018-10-01T21:50:51.462Z,100665.95
2018-10-01T21:53:24.508Z,100666.20
2018-10-01T21:55:58.144Z,100665.22
2018-10-01T21:58:32.712Z,100668.38
2018-10-01T22:01:10.877Z,100666.38
2018-10-01T22:03:49.091Z,100661.30
2018-10-01T22:06:24.607Z,100664.03
2018-10-01T22:08:58.479Z,100663.63
2018-10-01T22:11:40.404Z,100664.78
2018-10-01T22:14:13.048Z,100659.75
2018-10-01T22:16:46.925Z,100664.08
2018-10-01T22:19:20.012Z,100664.66
2018-10-01T22:21:54.280Z,100670.28
2018-10-01T22:24:27.332Z,100664.82
2018-10-01T22:27:00.643Z,100664.27
2018-10-01T22:29:34.364Z,100661.73
2018-10-01T22:32:10.693Z,100659.39
2018-10-01T22:34:52.619Z,100648.70
2018-10-01T22:37:25.797Z,100648.36
2018-10-01T22:39:59.632Z,100652.98
2018-10-01T22:42:32.211Z,100644.93
2018-10-01T22:45:10.459Z,100641.80
2018-10-01T22:47:48.589Z,100639.03
2018-10-01T22:50:36.720Z,100639.77
2018-10-01T22:53:10.848Z,100641.06
2018-10-01T22:55:43.824Z,100646.70
2018-10-01T22:58:17.789Z,100651.69
2018-10-01T23:00:51.667Z,100644.22
2018-10-01T23:03:29.208Z,100647.19
2018-10-01T23:06:02.463Z,100647.49
2018-10-01T23:08:36.146Z,100644.22
2018-10-01T23:11:10.723Z,100649.72
2018-10-01T23:13:43.444Z,100649.22
2018-10-01T23:16:16.141Z,100651.52
2018-10-01T23:18:49.029Z,100657.34
2018-10-01T23:21:21.907Z,100654.48
2018-10-01T23:23:56.468Z,100661.47
2018-10-01T23:26:30.914Z,100657.32
2018-10-01T23:29:03.475Z,100658.34
2018-10-01T23:31:36.041Z,100665.41
2018-10-01T23:34:09.251Z,100660.81
2018-10-01T23:36:43.479Z,100658.03
2018-10-01T23:39:16.909Z,100657.01
2018-10-01T23:41:49.805Z,100656.39
2018-10-01T23:44:23.579Z,100659.95
2018-10-01T23:46:57.786Z,100656.37
2018-10-01T23:49:33.353Z,100657.00
2018-10-01T23:52:10.232Z,100650.77
2018-10-01T23:54:45.414Z,100650.52
2018-10-01T23:57:23.773Z,100647.02
2018-10-01T23:59:59.443Z,100648.75
